Weather at Jorge Chávez International Airport

Public forecast

Using degrees Celsius for public forecast. Weather courtesy of forecast.io.

Closest aviation weather report (METAR) to Jorge Chávez International Airport

Report is more than 2 hours old.

Closest report is Francisco Carle Airport, 97.5 nm (180.5 km) E.

2024/06/24 21:00 (retrieved 6 hours ago)

SPJJ 242100Z 34009KT 9999 SCT040 21/03 Q1030 RMK PP000

Closest aviation forecast (TAF) to Jorge Chávez International Airport

Forecast is more than 6 hours old.

Closest forecast is Francisco Carle Airport, 97.5 nm (180.5 km) E.

2024/06/24 18:00 (retrieved 9 hours ago)

TAF SPJJ 241700Z 2418/2518 21006KT 9999 FEW040 TX22/2420Z TNM01/2511Z